Flomot, Texas
Current Conditions -  °F | °C
As of 4:55 PM on Thursday 27 Nov 2014 (Local Time) from KPVW Reporting Station
Clear Clear  
Wind Chill: 57°   Ceiling: Unl
Heat Index: 57°   Visibility: 10mi
Dew Point: 32°   Wind: 12mph
Humidity: 38%   Direction: 210°SSW
Pressure: 30.27"   Gusts: NA
Location:  34.23°N, 100.99°W
Report Text: KPVW 272255Z AUTO 21010KT 10SM CLR 14/00 A3027 RMK AO2 T01391002
Loading
Personal Weather Stations






























Interactive Weather Map New forecast layout! Learn more

10-Day Weather Forecast

Advertisements
Track Severe Weather on mobile